Onega, Russia
Current Conditions -  °F | °C
As of 9:00 AM on Monday 22 Dec 2014 (Local Time) from ULAA Reporting Station
Snow Showers Snow Showers  
Wind Chill: 25°   Ceiling: 900
Heat Index: 25°   Visibility: 6mi
Dew Point: 23°   Wind: 2mph
Humidity: 93%   Direction: NA
Pressure: 29.09"   Gusts: NA
Location:  63.92°N, 38.08°E
Report Text: ULAA 220600Z VRB01MPS 9999 -SHSN BKN009CB OVC022 M04/M05 Q0985 BECMG 2000 SHSN BR BKN005CB RMK QFE738/0984 SC037
Loading
Personal Weather Stations






























Interactive Weather Map New forecast layout! Learn more

10-Day Weather Forecast

Advertisements
Track Severe Weather on mobile